sensor_id;sensor_type;location;lat;lon;timestamp;temperature;humidity
64685;DHT22;51109;47.414;18.954;2022-11-03T00:01:47;11.50;99.90
64685;DHT22;51109;47.414;18.954;2022-11-03T00:04:18;11.40;99.90
64685;DHT22;51109;47.414;18.954;2022-11-03T00:06:47;11.40;99.90
64685;DHT22;51109;47.414;18.954;2022-11-03T00:09:15;11.50;99.90
64685;DHT22;51109;47.414;18.954;2022-11-03T00:11:43;11.50;99.90
64685;DHT22;51109;47.414;18.954;2022-11-03T00:14:10;11.50;99.90
64685;DHT22;51109;47.414;18.954;2022-11-03T00:16:37;11.60;99.90
64685;DHT22;51109;47.414;18.954;2022-11-03T00:19:04;11.60;99.90
64685;DHT22;51109;47.414;18.954;2022-11-03T00:21:30;11.60;99.90
64685;DHT22;51109;47.414;18.954;2022-11-03T00:23:56;11.60;99.90
64685;DHT22;51109;47.414;18.954;2022-11-03T00:26:27;11.70;99.90
64685;DHT22;51109;47.414;18.954;2022-11-03T00:28:56;11.70;99.90
64685;DHT22;51109;47.414;18.954;2022-11-03T00:31:25;11.80;99.90
64685;DHT22;51109;47.414;18.954;2022-11-03T00:33:51;11.80;99.90
64685;DHT22;51109;47.414;18.954;2022-11-03T00:36:22;11.90;99.90
64685;DHT22;51109;47.414;18.954;2022-11-03T00:38:49;11.90;99.90
64685;DHT22;51109;47.414;18.954;2022-11-03T00:44:18;11.90;99.90
64685;DHT22;51109;47.414;18.954;2022-11-03T00:46:44;11.80;99.90
64685;DHT22;51109;47.414;18.954;2022-11-03T00:49:09;11.80;99.90
64685;DHT22;51109;47.414;18.954;2022-11-03T00:51:35;11.80;99.90
64685;DHT22;51109;47.414;18.954;2022-11-03T00:54:03;11.70;99.90
64685;DHT22;51109;47.414;18.954;2022-11-03T00:56:37;11.60;99.90
64685;DHT22;51109;47.414;18.954;2022-11-03T01:02:26;11.50;99.90
64685;DHT22;51109;47.414;18.954;2022-11-03T01:04:52;11.60;99.90
64685;DHT22;51109;47.414;18.954;2022-11-03T01:07:47;11.60;99.90
64685;DHT22;51109;47.414;18.954;2022-11-03T01:10:13;11.70;99.90
64685;DHT22;51109;47.414;18.954;2022-11-03T01:12:39;11.80;99.90
64685;DHT22;51109;47.414;18.954;2022-11-03T01:15:05;11.80;99.90
64685;DHT22;51109;47.414;18.954;2022-11-03T01:17:31;11.80;99.90
64685;DHT22;51109;47.414;18.954;2022-11-03T01:19:57;11.70;99.90
64685;DHT22;51109;47.414;18.954;2022-11-03T01:22:23;11.70;99.90
64685;DHT22;51109;47.414;18.954;2022-11-03T01:24:49;11.70;99.90
64685;DHT22;51109;47.414;18.954;2022-11-03T01:27:18;11.60;99.90
64685;DHT22;51109;47.414;18.954;2022-11-03T01:29:44;11.50;99.90
64685;DHT22;51109;47.414;18.954;2022-11-03T01:32:10;11.50;99.90
64685;DHT22;51109;47.414;18.954;2022-11-03T01:34:37;11.60;99.90
64685;DHT22;51109;47.414;18.954;2022-11-03T01:37:03;11.50;99.90
64685;DHT22;51109;47.414;18.954;2022-11-03T01:39:29;11.60;99.90
64685;DHT22;51109;47.414;18.954;2022-11-03T01:41:55;11.70;99.90
64685;DHT22;51109;47.414;18.954;2022-11-03T01:44:36;11.80;99.90
64685;DHT22;51109;47.414;18.954;2022-11-03T01:49:43;11.80;99.90
64685;DHT22;51109;47.414;18.954;2022-11-03T01:52:33;11.80;99.90
64685;DHT22;51109;47.414;18.954;2022-11-03T01:55:07;11.80;99.90
64685;DHT22;51109;47.414;18.954;2022-11-03T01:57:37;11.80;99.90
64685;DHT22;51109;47.414;18.954;2022-11-03T02:02:47;11.80;99.90
64685;DHT22;51109;47.414;18.954;2022-11-03T02:05:15;11.70;99.90
64685;DHT22;51109;47.414;18.954;2022-11-03T02:10:27;11.50;99.90
64685;DHT22;51109;47.414;18.954;2022-11-03T02:12:53;11.40;99.90
64685;DHT22;51109;47.414;18.954;2022-11-03T02:15:20;11.40;99.90
64685;DHT22;51109;47.414;18.954;2022-11-03T02:17:49;11.20;99.90
64685;DHT22;51109;47.414;18.954;2022-11-03T02:20:25;11.10;99.90
64685;DHT22;51109;47.414;18.954;2022-11-03T02:25:43;11.10;99.90
64685;DHT22;51109;47.414;18.954;2022-11-03T02:28:11;11.00;99.90
64685;DHT22;51109;47.414;18.954;2022-11-03T02:38:19;10.70;99.90
64685;DHT22;51109;47.414;18.954;2022-11-03T02:40:47;10.60;99.90
64685;DHT22;51109;47.414;18.954;2022-11-03T02:43:16;10.50;99.90
64685;DHT22;51109;47.414;18.954;2022-11-03T02:45:44;10.60;99.90
64685;DHT22;51109;47.414;18.954;2022-11-03T02:48:13;10.50;99.90
64685;DHT22;51109;47.414;18.954;2022-11-03T02:50:40;10.60;99.90
64685;DHT22;51109;47.414;18.954;2022-11-03T02:53:10;10.50;99.90
64685;DHT22;51109;47.414;18.954;2022-11-03T03:00:55;10.60;99.90
64685;DHT22;51109;47.414;18.954;2022-11-03T03:03:53;10.80;99.90
64685;DHT22;51109;47.414;18.954;2022-11-03T03:06:32;10.80;99.90
64685;DHT22;51109;47.414;18.954;2022-11-03T03:09:02;10.90;99.90
64685;DHT22;51109;47.414;18.954;2022-11-03T03:11:29;11.00;99.90
64685;DHT22;51109;47.414;18.954;2022-11-03T03:14:17;11.00;99.90
64685;DHT22;51109;47.414;18.954;2022-11-03T03:17:08;11.00;99.90
64685;DHT22;51109;47.414;18.954;2022-11-03T03:19:52;10.80;99.90
64685;DHT22;51109;47.414;18.954;2022-11-03T03:22:31;10.70;99.90
64685;DHT22;51109;47.414;18.954;2022-11-03T03:25:30;10.60;99.90
64685;DHT22;51109;47.414;18.954;2022-11-03T03:28:09;10.40;99.90
64685;DHT22;51109;47.414;18.954;2022-11-03T03:30:36;10.00;99.90
64685;DHT22;51109;47.414;18.954;2022-11-03T03:33:04;9.80;99.90
64685;DHT22;51109;47.414;18.954;2022-11-03T03:35:32;9.60;99.90
64685;DHT22;51109;47.414;18.954;2022-11-03T03:38:03;9.50;99.90
64685;DHT22;51109;47.414;18.954;2022-11-03T03:40:34;9.50;99.90
64685;DHT22;51109;47.414;18.954;2022-11-03T03:43:02;9.50;99.90
64685;DHT22;51109;47.414;18.954;2022-11-03T03:45:30;9.60;99.90
64685;DHT22;51109;47.414;18.954;2022-11-03T03:47:57;9.50;99.90
64685;DHT22;51109;47.414;18.954;2022-11-03T03:50:26;9.60;99.90
64685;DHT22;51109;47.414;18.954;2022-11-03T03:52:56;9.60;99.90
64685;DHT22;51109;47.414;18.954;2022-11-03T03:55:35;9.60;99.90
64685;DHT22;51109;47.414;18.954;2022-11-03T03:58:06;9.50;99.90
64685;DHT22;51109;47.414;18.954;2022-11-03T04:00:32;9.40;99.90
64685;DHT22;51109;47.414;18.954;2022-11-03T04:02:58;9.30;99.90
64685;DHT22;51109;47.414;18.954;2022-11-03T04:05:25;9.30;99.90
64685;DHT22;51109;47.414;18.954;2022-11-03T04:07:51;9.20;99.90
64685;DHT22;51109;47.414;18.954;2022-11-03T04:10:19;9.10;99.90
64685;DHT22;51109;47.414;18.954;2022-11-03T04:12:46;9.10;99.90
64685;DHT22;51109;47.414;18.954;2022-11-03T04:15:31;9.20;99.90
64685;DHT22;51109;47.414;18.954;2022-11-03T04:18:17;9.40;99.90
64685;DHT22;51109;47.414;18.954;2022-11-03T04:21:02;9.40;99.90
64685;DHT22;51109;47.414;18.954;2022-11-03T04:23:46;9.50;99.90
64685;DHT22;51109;47.414;18.954;2022-11-03T04:26:15;9.60;99.90
64685;DHT22;51109;47.414;18.954;2022-11-03T04:28:42;9.50;99.90
64685;DHT22;51109;47.414;18.954;2022-11-03T04:31:15;9.40;99.90
64685;DHT22;51109;47.414;18.954;2022-11-03T04:33:42;9.40;99.90
64685;DHT22;51109;47.414;18.954;2022-11-03T04:36:17;9.30;99.90
64685;DHT22;51109;47.414;18.954;2022-11-03T04:38:44;9.30;99.90
64685;DHT22;51109;47.414;18.954;2022-11-03T04:41:36;9.30;99.90
64685;DHT22;51109;47.414;18.954;2022-11-03T04:44:06;9.40;99.90
64685;DHT22;51109;47.414;18.954;2022-11-03T04:46:35;9.50;99.90
64685;DHT22;51109;47.414;18.954;2022-11-03T04:49:03;9.50;99.90
64685;DHT22;51109;47.414;18.954;2022-11-03T04:51:32;9.50;99.90
64685;DHT22;51109;47.414;18.954;2022-11-03T04:54:13;9.50;99.90
64685;DHT22;51109;47.414;18.954;2022-11-03T04:56:40;9.50;99.90
64685;DHT22;51109;47.414;18.954;2022-11-03T04:59:14;9.50;99.90
64685;DHT22;51109;47.414;18.954;2022-11-03T05:01:41;9.60;99.90
64685;DHT22;51109;47.414;18.954;2022-11-03T05:04:13;9.60;99.90
64685;DHT22;51109;47.414;18.954;2022-11-03T05:06:40;9.60;99.90
64685;DHT22;51109;47.414;18.954;2022-11-03T05:09:13;9.60;99.90
64685;DHT22;51109;47.414;18.954;2022-11-03T05:11:40;9.50;99.90
64685;DHT22;51109;47.414;18.954;2022-11-03T05:14:19;9.20;99.90
64685;DHT22;51109;47.414;18.954;2022-11-03T05:16:47;9.00;99.90
64685;DHT22;51109;47.414;18.954;2022-11-03T05:21:49;8.90;99.90
64685;DHT22;51109;47.414;18.954;2022-11-03T05:24:18;8.90;99.90
64685;DHT22;51109;47.414;18.954;2022-11-03T05:26:44;8.80;99.90
64685;DHT22;51109;47.414;18.954;2022-11-03T05:29:15;8.90;99.90
64685;DHT22;51109;47.414;18.954;2022-11-03T05:31:43;9.00;99.90
64685;DHT22;51109;47.414;18.954;2022-11-03T05:39:36;9.30;99.90
64685;DHT22;51109;47.414;18.954;2022-11-03T05:44:46;9.50;99.90
64685;DHT22;51109;47.414;18.954;2022-11-03T05:47:19;9.50;99.90
64685;DHT22;51109;47.414;18.954;2022-11-03T05:49:51;9.50;99.90
64685;DHT22;51109;47.414;18.954;2022-11-03T05:52:22;9.40;99.90
64685;DHT22;51109;47.414;18.954;2022-11-03T05:54:49;9.40;99.90
64685;DHT22;51109;47.414;18.954;2022-11-03T05:57:17;9.40;99.90
64685;DHT22;51109;47.414;18.954;2022-11-03T05:59:48;9.40;99.90
64685;DHT22;51109;47.414;18.954;2022-11-03T06:02:37;9.40;99.90
64685;DHT22;51109;47.414;18.954;2022-11-03T06:05:21;9.50;99.90
64685;DHT22;51109;47.414;18.954;2022-11-03T06:07:48;9.70;99.90
64685;DHT22;51109;47.414;18.954;2022-11-03T06:10:27;9.80;99.90
64685;DHT22;51109;47.414;18.954;2022-11-03T06:13:36;9.90;99.90
64685;DHT22;51109;47.414;18.954;2022-11-03T06:16:03;9.90;99.90
64685;DHT22;51109;47.414;18.954;2022-11-03T06:18:35;10.00;99.90
64685;DHT22;51109;47.414;18.954;2022-11-03T06:21:15;10.10;99.90
64685;DHT22;51109;47.414;18.954;2022-11-03T06:23:43;10.20;99.90
64685;DHT22;51109;47.414;18.954;2022-11-03T06:26:18;10.20;99.90
64685;DHT22;51109;47.414;18.954;2022-11-03T06:28:46;10.30;99.90
64685;DHT22;51109;47.414;18.954;2022-11-03T06:31:23;10.40;99.90
64685;DHT22;51109;47.414;18.954;2022-11-03T06:33:52;10.40;99.90
64685;DHT22;51109;47.414;18.954;2022-11-03T06:36:41;10.50;99.90
64685;DHT22;51109;47.414;18.954;2022-11-03T06:39:16;10.60;99.90
64685;DHT22;51109;47.414;18.954;2022-11-03T06:41:44;10.70;99.90
64685;DHT22;51109;47.414;18.954;2022-11-03T06:44:26;10.80;99.90
64685;DHT22;51109;47.414;18.954;2022-11-03T06:47:00;10.80;99.90
64685;DHT22;51109;47.414;18.954;2022-11-03T06:49:29;10.90;99.90
64685;DHT22;51109;47.414;18.954;2022-11-03T06:51:58;11.00;99.90
64685;DHT22;51109;47.414;18.954;2022-11-03T06:54:27;11.10;99.90
64685;DHT22;51109;47.414;18.954;2022-11-03T06:56:53;11.20;99.90
64685;DHT22;51109;47.414;18.954;2022-11-03T06:59:19;11.30;99.90
64685;DHT22;51109;47.414;18.954;2022-11-03T07:01:47;11.40;99.90
64685;DHT22;51109;47.414;18.954;2022-11-03T07:04:19;11.50;99.90
64685;DHT22;51109;47.414;18.954;2022-11-03T07:06:45;11.60;99.90
64685;DHT22;51109;47.414;18.954;2022-11-03T07:09:23;11.70;99.90
64685;DHT22;51109;47.414;18.954;2022-11-03T07:11:59;11.90;99.90
64685;DHT22;51109;47.414;18.954;2022-11-03T07:16:55;11.90;99.90
64685;DHT22;51109;47.414;18.954;2022-11-03T07:19:24;11.90;99.90
64685;DHT22;51109;47.414;18.954;2022-11-03T07:22:02;11.90;99.90
64685;DHT22;51109;47.414;18.954;2022-11-03T07:24:44;11.90;99.90
64685;DHT22;51109;47.414;18.954;2022-11-03T07:29:50;12.00;99.90
64685;DHT22;51109;47.414;18.954;2022-11-03T07:32:21;11.90;99.90
64685;DHT22;51109;47.414;18.954;2022-11-03T07:34:48;11.90;99.90
64685;DHT22;51109;47.414;18.954;2022-11-03T07:37:18;11.90;99.90
64685;DHT22;51109;47.414;18.954;2022-11-03T07:39:45;11.90;99.90
64685;DHT22;51109;47.414;18.954;2022-11-03T07:42:31;12.00;99.90
64685;DHT22;51109;47.414;18.954;2022-11-03T07:44:57;11.90;99.90
64685;DHT22;51109;47.414;18.954;2022-11-03T07:47:24;11.90;99.90
64685;DHT22;51109;47.414;18.954;2022-11-03T07:49:52;11.90;99.90
64685;DHT22;51109;47.414;18.954;2022-11-03T07:52:21;11.90;99.90
64685;DHT22;51109;47.414;18.954;2022-11-03T07:54:50;11.90;99.90
64685;DHT22;51109;47.414;18.954;2022-11-03T07:57:27;11.90;99.90
64685;DHT22;51109;47.414;18.954;2022-11-03T08:00:06;11.90;99.90
64685;DHT22;51109;47.414;18.954;2022-11-03T08:05:12;11.90;99.90
64685;DHT22;51109;47.414;18.954;2022-11-03T08:07:38;11.80;99.90
64685;DHT22;51109;47.414;18.954;2022-11-03T08:10:04;11.80;99.90
64685;DHT22;51109;47.414;18.954;2022-11-03T08:12:32;11.80;99.90
64685;DHT22;51109;47.414;18.954;2022-11-03T08:14:58;11.80;99.90
64685;DHT22;51109;47.414;18.954;2022-11-03T08:17:24;11.70;99.90
64685;DHT22;51109;47.414;18.954;2022-11-03T08:19:51;11.70;99.90
64685;DHT22;51109;47.414;18.954;2022-11-03T08:22:17;11.70;99.90
64685;DHT22;51109;47.414;18.954;2022-11-03T08:24:43;11.80;99.90
64685;DHT22;51109;47.414;18.954;2022-11-03T08:27:09;11.80;99.90
64685;DHT22;51109;47.414;18.954;2022-11-03T08:29:35;11.80;99.90
64685;DHT22;51109;47.414;18.954;2022-11-03T08:32:01;11.80;99.90
64685;DHT22;51109;47.414;18.954;2022-11-03T08:34:26;11.90;99.90
64685;DHT22;51109;47.414;18.954;2022-11-03T08:36:52;11.90;99.90
64685;DHT22;51109;47.414;18.954;2022-11-03T08:39:18;11.90;99.90
64685;DHT22;51109;47.414;18.954;2022-11-03T08:41:44;11.90;99.90
64685;DHT22;51109;47.414;18.954;2022-11-03T08:44:10;11.90;99.90
64685;DHT22;51109;47.414;18.954;2022-11-03T08:46:36;11.80;99.90
64685;DHT22;51109;47.414;18.954;2022-11-03T08:49:02;11.80;99.90
64685;DHT22;51109;47.414;18.954;2022-11-03T08:51:28;11.90;99.90
64685;DHT22;51109;47.414;18.954;2022-11-03T08:53:54;12.00;99.90
64685;DHT22;51109;47.414;18.954;2022-11-03T08:56:20;12.10;99.90
64685;DHT22;51109;47.414;18.954;2022-11-03T08:58:46;12.10;99.90
64685;DHT22;51109;47.414;18.954;2022-11-03T09:01:12;12.10;99.90
64685;DHT22;51109;47.414;18.954;2022-11-03T09:03:39;12.10;99.90
64685;DHT22;51109;47.414;18.954;2022-11-03T09:06:05;12.10;99.90
64685;DHT22;51109;47.414;18.954;2022-11-03T09:08:31;12.10;99.90
64685;DHT22;51109;47.414;18.954;2022-11-03T09:10:58;12.10;99.90
64685;DHT22;51109;47.414;18.954;2022-11-03T09:13:24;12.10;99.90
64685;DHT22;51109;47.414;18.954;2022-11-03T09:15:49;12.20;99.90
64685;DHT22;51109;47.414;18.954;2022-11-03T09:18:16;12.10;99.90
64685;DHT22;51109;47.414;18.954;2022-11-03T09:20:42;12.10;99.90
64685;DHT22;51109;47.414;18.954;2022-11-03T09:23:08;12.00;99.90
64685;DHT22;51109;47.414;18.954;2022-11-03T09:25:33;12.00;99.90
64685;DHT22;51109;47.414;18.954;2022-11-03T09:27:59;11.90;99.90
64685;DHT22;51109;47.414;18.954;2022-11-03T09:30:25;11.90;99.90
64685;DHT22;51109;47.414;18.954;2022-11-03T09:32:51;11.90;99.90
64685;DHT22;51109;47.414;18.954;2022-11-03T09:35:17;12.00;99.90
64685;DHT22;51109;47.414;18.954;2022-11-03T09:37:44;11.90;99.90
64685;DHT22;51109;47.414;18.954;2022-11-03T09:40:12;11.90;99.90
64685;DHT22;51109;47.414;18.954;2022-11-03T09:42:39;11.90;99.90
64685;DHT22;51109;47.414;18.954;2022-11-03T09:45:06;11.90;99.90
64685;DHT22;51109;47.414;18.954;2022-11-03T09:47:35;11.90;99.90
64685;DHT22;51109;47.414;18.954;2022-11-03T09:50:04;11.90;99.90
64685;DHT22;51109;47.414;18.954;2022-11-03T09:52:32;12.00;99.90
64685;DHT22;51109;47.414;18.954;2022-11-03T09:55:01;12.00;99.90
64685;DHT22;51109;47.414;18.954;2022-11-03T09:57:27;12.00;99.90
64685;DHT22;51109;47.414;18.954;2022-11-03T09:59:54;12.00;99.90
64685;DHT22;51109;47.414;18.954;2022-11-03T10:02:28;12.10;99.90
64685;DHT22;51109;47.414;18.954;2022-11-03T10:04:56;12.10;99.90
64685;DHT22;51109;47.414;18.954;2022-11-03T10:07:25;12.10;99.90
64685;DHT22;51109;47.414;18.954;2022-11-03T10:09:52;12.10;99.90
64685;DHT22;51109;47.414;18.954;2022-11-03T10:12:20;12.00;99.90
64685;DHT22;51109;47.414;18.954;2022-11-03T10:14:47;12.00;99.90
64685;DHT22;51109;47.414;18.954;2022-11-03T10:17:25;11.90;99.90
64685;DHT22;51109;47.414;18.954;2022-11-03T10:19:55;11.80;99.90
64685;DHT22;51109;47.414;18.954;2022-11-03T10:22:23;11.90;99.90
64685;DHT22;51109;47.414;18.954;2022-11-03T10:25:23;11.80;99.90
64685;DHT22;51109;47.414;18.954;2022-11-03T10:27:37;11.70;99.90
64685;DHT22;51109;47.414;18.954;2022-11-03T10:32:30;11.60;99.90
64685;DHT22;51109;47.414;18.954;2022-11-03T10:34:58;11.60;99.90
64685;DHT22;51109;47.414;18.954;2022-11-03T10:37:25;11.60;99.90
64685;DHT22;51109;47.414;18.954;2022-11-03T10:39:56;11.60;99.90
64685;DHT22;51109;47.414;18.954;2022-11-03T10:42:27;11.60;99.90
64685;DHT22;51109;47.414;18.954;2022-11-03T10:45:17;11.60;99.90
64685;DHT22;51109;47.414;18.954;2022-11-03T10:47:43;11.60;99.90
64685;DHT22;51109;47.414;18.954;2022-11-03T10:50:25;11.60;99.90
64685;DHT22;51109;47.414;18.954;2022-11-03T10:52:52;11.60;99.90
64685;DHT22;51109;47.414;18.954;2022-11-03T10:55:19;11.60;99.90
64685;DHT22;51109;47.414;18.954;2022-11-03T10:57:46;11.60;99.90
64685;DHT22;51109;47.414;18.954;2022-11-03T11:00:14;11.60;99.90
64685;DHT22;51109;47.414;18.954;2022-11-03T11:02:42;11.50;99.90
64685;DHT22;51109;47.414;18.954;2022-11-03T11:05:22;11.50;99.90
64685;DHT22;51109;47.414;18.954;2022-11-03T11:07:50;11.50;99.90
64685;DHT22;51109;47.414;18.954;2022-11-03T11:10:25;11.50;99.90
64685;DHT22;51109;47.414;18.954;2022-11-03T11:13:03;11.50;99.90
64685;DHT22;51109;47.414;18.954;2022-11-03T11:15:43;11.50;99.90
64685;DHT22;51109;47.414;18.954;2022-11-03T11:20:57;11.60;99.90
64685;DHT22;51109;47.414;18.954;2022-11-03T11:28:44;11.50;99.90
64685;DHT22;51109;47.414;18.954;2022-11-03T11:36:41;11.50;99.90
64685;DHT22;51109;47.414;18.954;2022-11-03T11:47:42;11.50;99.90
64685;DHT22;51109;47.414;18.954;2022-11-03T11:52:56;11.50;99.90
64685;DHT22;51109;47.414;18.954;2022-11-03T11:55:30;11.50;99.90
64685;DHT22;51109;47.414;18.954;2022-11-03T11:57:59;11.50;99.90
64685;DHT22;51109;47.414;18.954;2022-11-03T12:00:28;11.50;99.90
64685;DHT22;51109;47.414;18.954;2022-11-03T12:02:55;11.50;99.90
64685;DHT22;51109;47.414;18.954;2022-11-03T12:05:27;11.50;99.90
64685;DHT22;51109;47.414;18.954;2022-11-03T12:07:55;11.40;99.90
64685;DHT22;51109;47.414;18.954;2022-11-03T12:10:23;11.50;99.90
64685;DHT22;51109;47.414;18.954;2022-11-03T12:12:53;11.50;99.90
64685;DHT22;51109;47.414;18.954;2022-11-03T12:18:40;11.60;99.90
64685;DHT22;51109;47.414;18.954;2022-11-03T12:21:12;11.60;99.90
64685;DHT22;51109;47.414;18.954;2022-11-03T12:23:43;11.70;99.90
64685;DHT22;51109;47.414;18.954;2022-11-03T12:28:52;11.70;99.90
64685;DHT22;51109;47.414;18.954;2022-11-03T12:31:18;11.70;99.90
64685;DHT22;51109;47.414;18.954;2022-11-03T12:33:44;11.70;99.90
64685;DHT22;51109;47.414;18.954;2022-11-03T12:36:09;11.70;99.90
64685;DHT22;51109;47.414;18.954;2022-11-03T12:38:35;11.70;99.90
64685;DHT22;51109;47.414;18.954;2022-11-03T12:41:02;11.80;99.90
64685;DHT22;51109;47.414;18.954;2022-11-03T12:44:00;11.80;99.90
64685;DHT22;51109;47.414;18.954;2022-11-03T12:46:26;11.80;99.90
64685;DHT22;51109;47.414;18.954;2022-11-03T12:48:52;11.80;99.90
64685;DHT22;51109;47.414;18.954;2022-11-03T12:51:23;11.80;99.90
64685;DHT22;51109;47.414;18.954;2022-11-03T12:53:49;11.90;99.90
64685;DHT22;51109;47.414;18.954;2022-11-03T12:56:17;11.90;99.90
64685;DHT22;51109;47.414;18.954;2022-11-03T12:58:43;11.90;99.90
64685;DHT22;51109;47.414;18.954;2022-11-03T13:01:09;11.90;99.90
64685;DHT22;51109;47.414;18.954;2022-11-03T13:03:35;11.90;99.90
64685;DHT22;51109;47.414;18.954;2022-11-03T13:06:04;11.90;99.90
64685;DHT22;51109;47.414;18.954;2022-11-03T13:08:35;11.90;99.90
64685;DHT22;51109;47.414;18.954;2022-11-03T13:11:01;11.90;99.90
64685;DHT22;51109;47.414;18.954;2022-11-03T13:13:27;11.90;99.90
64685;DHT22;51109;47.414;18.954;2022-11-03T13:15:53;11.90;99.90
64685;DHT22;51109;47.414;18.954;2022-11-03T13:18:20;11.90;99.90
64685;DHT22;51109;47.414;18.954;2022-11-03T13:20:47;11.90;99.90
64685;DHT22;51109;47.414;18.954;2022-11-03T13:23:13;11.90;99.90
64685;DHT22;51109;47.414;18.954;2022-11-03T13:25:38;11.90;99.90
64685;DHT22;51109;47.414;18.954;2022-11-03T13:28:05;11.90;99.90
64685;DHT22;51109;47.414;18.954;2022-11-03T13:30:31;11.90;99.90
64685;DHT22;51109;47.414;18.954;2022-11-03T13:32:58;11.80;99.90
64685;DHT22;51109;47.414;18.954;2022-11-03T13:35:24;11.90;99.90
64685;DHT22;51109;47.414;18.954;2022-11-03T13:37:50;11.90;99.90
64685;DHT22;51109;47.414;18.954;2022-11-03T13:40:16;11.80;99.90
64685;DHT22;51109;47.414;18.954;2022-11-03T13:42:42;11.80;99.90
64685;DHT22;51109;47.414;18.954;2022-11-03T13:45:09;11.70;99.90
64685;DHT22;51109;47.414;18.954;2022-11-03T13:47:35;11.70;99.90
64685;DHT22;51109;47.414;18.954;2022-11-03T13:50:01;11.70;99.90
64685;DHT22;51109;47.414;18.954;2022-11-03T13:52:27;11.70;99.90
64685;DHT22;51109;47.414;18.954;2022-11-03T13:54:56;11.70;99.90
64685;DHT22;51109;47.414;18.954;2022-11-03T13:57:21;11.70;99.90
64685;DHT22;51109;47.414;18.954;2022-11-03T13:59:47;11.60;99.90
64685;DHT22;51109;47.414;18.954;2022-11-03T14:02:13;11.60;99.90
64685;DHT22;51109;47.414;18.954;2022-11-03T14:04:39;11.60;99.90
64685;DHT22;51109;47.414;18.954;2022-11-03T14:07:05;11.50;99.90
64685;DHT22;51109;47.414;18.954;2022-11-03T14:09:32;11.50;99.90
64685;DHT22;51109;47.414;18.954;2022-11-03T14:11:57;11.50;99.90
64685;DHT22;51109;47.414;18.954;2022-11-03T14:14:42;11.20;99.90
64685;DHT22;51109;47.414;18.954;2022-11-03T14:17:08;11.50;99.90
64685;DHT22;51109;47.414;18.954;2022-11-03T14:19:34;11.40;99.90
64685;DHT22;51109;47.414;18.954;2022-11-03T14:22:05;11.40;99.90
64685;DHT22;51109;47.414;18.954;2022-11-03T14:24:31;11.30;99.90
64685;DHT22;51109;47.414;18.954;2022-11-03T14:26:57;11.40;99.90
64685;DHT22;51109;47.414;18.954;2022-11-03T14:29:23;11.30;99.90
64685;DHT22;51109;47.414;18.954;2022-11-03T14:31:49;11.30;99.90
64685;DHT22;51109;47.414;18.954;2022-11-03T14:34:15;11.30;99.90
64685;DHT22;51109;47.414;18.954;2022-11-03T14:36:41;11.30;99.90
64685;DHT22;51109;47.414;18.954;2022-11-03T14:39:07;11.30;99.90
64685;DHT22;51109;47.414;18.954;2022-11-03T14:41:32;11.40;99.90
64685;DHT22;51109;47.414;18.954;2022-11-03T14:44:17;11.40;99.90
64685;DHT22;51109;47.414;18.954;2022-11-03T14:46:43;11.40;99.90
64685;DHT22;51109;47.414;18.954;2022-11-03T14:49:09;11.30;99.90
64685;DHT22;51109;47.414;18.954;2022-11-03T14:51:35;11.30;99.90
64685;DHT22;51109;47.414;18.954;2022-11-03T14:54:01;11.30;99.90
64685;DHT22;51109;47.414;18.954;2022-11-03T14:56:27;11.30;99.90
64685;DHT22;51109;47.414;18.954;2022-11-03T14:58:53;11.30;99.90
64685;DHT22;51109;47.414;18.954;2022-11-03T15:01:19;11.30;99.90
64685;DHT22;51109;47.414;18.954;2022-11-03T15:03:45;11.30;99.90
64685;DHT22;51109;47.414;18.954;2022-11-03T15:06:11;11.20;99.90
64685;DHT22;51109;47.414;18.954;2022-11-03T15:08:38;11.10;99.90
64685;DHT22;51109;47.414;18.954;2022-11-03T15:11:05;11.10;99.90
64685;DHT22;51109;47.414;18.954;2022-11-03T15:13:33;11.00;99.90
64685;DHT22;51109;47.414;18.954;2022-11-03T15:15:59;11.00;99.90
64685;DHT22;51109;47.414;18.954;2022-11-03T15:18:25;11.00;99.90
64685;DHT22;51109;47.414;18.954;2022-11-03T15:20:51;10.90;99.90
64685;DHT22;51109;47.414;18.954;2022-11-03T15:23:17;10.80;99.90
64685;DHT22;51109;47.414;18.954;2022-11-03T15:25:43;10.80;99.90
64685;DHT22;51109;47.414;18.954;2022-11-03T15:28:09;10.70;99.90
64685;DHT22;51109;47.414;18.954;2022-11-03T15:30:38;10.70;99.90
64685;DHT22;51109;47.414;18.954;2022-11-03T15:33:04;10.70;99.90
64685;DHT22;51109;47.414;18.954;2022-11-03T15:35:30;10.60;99.90
64685;DHT22;51109;47.414;18.954;2022-11-03T15:37:56;10.50;99.90
64685;DHT22;51109;47.414;18.954;2022-11-03T15:40:25;10.40;99.90
64685;DHT22;51109;47.414;18.954;2022-11-03T15:42:51;10.30;99.90
64685;DHT22;51109;47.414;18.954;2022-11-03T15:45:18;10.20;99.90
64685;DHT22;51109;47.414;18.954;2022-11-03T15:47:44;10.20;99.90
64685;DHT22;51109;47.414;18.954;2022-11-03T15:50:10;10.00;99.90
64685;DHT22;51109;47.414;18.954;2022-11-03T15:52:37;9.90;99.90
64685;DHT22;51109;47.414;18.954;2022-11-03T15:55:07;9.80;99.90
64685;DHT22;51109;47.414;18.954;2022-11-03T15:57:33;9.80;99.90
64685;DHT22;51109;47.414;18.954;2022-11-03T16:00:00;9.70;99.90
64685;DHT22;51109;47.414;18.954;2022-11-03T16:02:25;9.70;99.90
64685;DHT22;51109;47.414;18.954;2022-11-03T16:04:51;9.70;99.90
64685;DHT22;51109;47.414;18.954;2022-11-03T16:07:17;9.60;99.90
64685;DHT22;51109;47.414;18.954;2022-11-03T16:09:43;9.60;99.90
64685;DHT22;51109;47.414;18.954;2022-11-03T16:12:09;9.60;99.90
64685;DHT22;51109;47.414;18.954;2022-11-03T16:14:35;9.50;99.90
64685;DHT22;51109;47.414;18.954;2022-11-03T16:17:01;9.50;99.90
64685;DHT22;51109;47.414;18.954;2022-11-03T16:19:27;9.50;99.90
64685;DHT22;51109;47.414;18.954;2022-11-03T16:21:53;9.60;99.90
64685;DHT22;51109;47.414;18.954;2022-11-03T16:24:19;9.50;99.90
64685;DHT22;51109;47.414;18.954;2022-11-03T16:26:45;9.60;99.90
64685;DHT22;51109;47.414;18.954;2022-11-03T16:29:10;9.60;99.90
64685;DHT22;51109;47.414;18.954;2022-11-03T16:31:36;9.60;99.90
64685;DHT22;51109;47.414;18.954;2022-11-03T16:34:02;9.60;99.90
64685;DHT22;51109;47.414;18.954;2022-11-03T16:36:29;9.60;99.90
64685;DHT22;51109;47.414;18.954;2022-11-03T16:38:55;9.60;99.90
64685;DHT22;51109;47.414;18.954;2022-11-03T16:41:21;9.60;99.90
64685;DHT22;51109;47.414;18.954;2022-11-03T16:43:47;9.70;99.90
64685;DHT22;51109;47.414;18.954;2022-11-03T16:46:15;9.70;99.90
64685;DHT22;51109;47.414;18.954;2022-11-03T16:48:41;9.70;99.90
64685;DHT22;51109;47.414;18.954;2022-11-03T16:51:07;9.70;99.90
64685;DHT22;51109;47.414;18.954;2022-11-03T16:53:32;9.70;99.90
64685;DHT22;51109;47.414;18.954;2022-11-03T16:55:59;9.70;99.90